Time;durP1;ratioP1;P1;durP2;ratioP2;P2;SDS_P1;SDS_P2;PMS_P1;PMS_P2;Temp;Humidity;BMP_temperature;BMP_pressure;BME280_temperature;BME280_humidity;BME280_pressure;Samples;Min_cycle;Max_cycle;Signal;HPM_P1;HPM_P2
2022/03/09 00:02:12;;;;;;;3.17;2.63;;;;;;;0.85;60.31;101767.78;4937583;29;20055;-85
2022/03/09 00:04:38;;;;;;;5.03;2.35;;;;;;;0.86;59.84;101761.81;4906928;29;20063;-85
2022/03/09 00:07:05;;;;;;;4.05;3.08;;;;;;;0.88;59.39;101763.66;4938416;29;20409;-85
2022/03/09 00:09:32;;;;;;;3.55;2.83;;;;;;;0.88;60.27;101757.63;4892577;29;20083;-85
2022/03/09 00:11:58;;;;;;;5.70;2.55;;;;;;;0.90;60.04;101768.88;4916268;29;20498;-85
2022/03/09 00:14:25;;;;;;;6.68;3.53;;;;;;;0.92;59.66;101767.28;4914262;29;20051;-85
2022/03/09 00:16:51;;;;;;;4.88;2.42;;;;;;;0.91;59.83;101768.09;4918699;29;20054;-85
2022/03/09 00:19:18;;;;;;;3.63;2.58;;;;;;;0.87;60.15;101777.34;4898858;29;20050;-85
2022/03/09 00:21:44;;;;;;;6.20;3.08;;;;;;;0.84;60.32;101773.75;4926275;29;20047;-85
2022/03/09 00:24:11;;;;;;;3.50;3.10;;;;;;;0.78;60.47;101777.81;4912784;29;20039;-84
2022/03/09 00:26:38;;;;;;;3.00;2.00;;;;;;;0.77;60.49;101788.00;4913178;29;20055;-84
2022/03/09 00:29:05;;;;;;;4.80;2.80;;;;;;;0.75;60.22;101787.94;4895364;29;20079;-85
2022/03/09 00:31:31;;;;;;;4.55;2.95;;;;;;;0.73;60.23;101792.16;4916724;29;20047;-84
2022/03/09 00:33:58;;;;;;;4.00;2.08;;;;;;;0.72;60.38;101800.69;4910572;29;20055;-85
2022/03/09 00:36:24;;;;;;;7.40;2.15;;;;;;;0.73;59.58;101796.41;4914237;29;20061;-85
2022/03/09 00:38:51;;;;;;;2.72;2.15;;;;;;;0.72;59.82;101803.28;4929355;29;20047;-85
2022/03/09 00:41:17;;;;;;;3.63;2.97;;;;;;;0.69;60.08;101802.22;4906282;29;20048;-84
2022/03/09 00:43:44;;;;;;;2.47;2.20;;;;;;;0.67;59.98;101811.59;4907103;29;20059;-85
2022/03/09 00:46:10;;;;;;;5.20;2.25;;;;;;;0.63;59.77;101808.84;4893898;29;20048;-85
2022/03/09 00:48:38;;;;;;;4.32;2.53;;;;;;;0.60;60.32;101815.53;4911975;29;20060;-85
2022/03/09 00:51:04;;;;;;;5.28;2.70;;;;;;;0.56;60.75;101811.94;4912512;29;20122;-85
2022/03/09 00:53:31;;;;;;;4.53;2.58;;;;;;;0.54;60.58;101815.25;4890525;29;20040;-85
2022/03/09 00:55:57;;;;;;;5.43;1.90;;;;;;;0.50;60.14;101811.63;4909871;29;20052;-85
2022/03/09 00:58:24;;;;;;;6.35;2.83;;;;;;;0.48;60.79;101810.63;4890918;29;20059;-84
2022/03/09 01:00:51;;;;;;;6.32;2.75;;;;;;;0.49;60.97;101808.13;4893999;29;20157;-85
2022/03/09 01:03:17;;;;;;;4.05;2.72;;;;;;;0.48;61.23;101811.53;4895369;29;20387;-84
2022/03/09 01:05:44;;;;;;;5.63;2.80;;;;;;;0.46;61.13;101810.56;4875881;29;20055;-83
2022/03/09 01:08:10;;;;;;;3.17;2.83;;;;;;;0.41;61.07;101801.72;4893488;29;20122;-83
2022/03/09 01:10:37;;;;;;;4.35;2.78;;;;;;;0.38;61.59;101811.88;4883297;29;20560;-85
2022/03/09 01:13:04;;;;;;;8.27;2.78;;;;;;;0.35;62.08;101813.41;4871626;29;20070;-85
2022/03/09 01:15:31;;;;;;;4.38;2.75;;;;;;;0.32;61.99;101798.69;4915528;29;20231;-85
2022/03/09 01:17:57;;;;;;;4.18;2.63;;;;;;;0.29;62.11;101811.41;4906624;29;20040;-85
2022/03/09 01:20:24;;;;;;;4.88;2.40;;;;;;;0.30;62.18;101805.44;4910226;29;21797;-85
2022/03/09 01:22:52;;;;;;;3.90;2.60;;;;;;;0.25;61.78;101814.59;4896918;29;20062;-85
2022/03/09 01:25:19;;;;;;;5.13;2.28;;;;;;;0.20;62.13;101818.66;4907178;29;20543;-85
2022/03/09 01:27:46;;;;;;;4.38;2.60;;;;;;;0.18;62.77;101815.97;4895329;29;20056;-85
2022/03/09 01:30:12;;;;;;;3.63;2.80;;;;;;;0.17;63.11;101811.66;4909359;29;20063;-85
2022/03/09 01:32:39;;;;;;;3.15;2.53;;;;;;;0.17;62.79;101811.66;4895874;29;20055;-85
2022/03/09 01:35:06;;;;;;;6.47;3.15;;;;;;;0.14;62.90;101814.97;4895955;29;20044;-85
2022/03/09 01:37:33;;;;;;;3.80;2.65;;;;;;;0.13;63.35;101820.91;4887866;29;20058;-84
2022/03/09 01:39:59;;;;;;;2.78;2.45;;;;;;;0.11;63.38;101801.03;4896326;29;20051;-85
2022/03/09 01:42:26;;;;;;;5.15;2.70;;;;;;;0.11;63.87;101801.91;4894610;29;20036;-85
2022/03/09 01:44:53;;;;;;;5.47;3.33;;;;;;;0.16;63.82;101808.19;4920856;29;20063;-83
2022/03/09 01:47:20;;;;;;;4.72;2.70;;;;;;;0.18;63.54;101803.09;4909018;29;20052;-85
2022/03/09 01:49:46;;;;;;;5.05;2.75;;;;;;;0.18;63.26;101797.09;4923699;29;20051;-84
2022/03/09 01:52:13;;;;;;;4.97;2.50;;;;;;;0.18;63.22;101800.53;4908088;29;20058;-84
2022/03/09 01:54:40;;;;;;;5.80;2.90;;;;;;;0.22;63.13;101794.75;4899520;29;20059;-85
2022/03/09 01:57:07;;;;;;;2.42;2.17;;;;;;;0.24;62.85;101800.84;4891470;29;20056;-85
2022/03/09 01:59:35;;;;;;;3.08;2.25;;;;;;;0.26;62.54;101795.78;4925964;29;20044;-85
2022/03/09 02:02:03;;;;;;;7.05;2.53;;;;;;;0.27;62.90;101800.13;4912109;29;20040;-84
2022/03/09 02:04:29;;;;;;;5.85;3.38;;;;;;;0.25;62.39;101787.19;4913784;29;20522;-84
2022/03/09 02:06:56;;;;;;;5.38;2.88;;;;;;;0.29;62.55;101786.53;4913598;29;20048;-84
2022/03/09 02:12:07;;;;;;;2.67;1.83;;;;;;;0.35;61.80;101791.09;4924630;29;20483;-85
2022/03/09 02:14:40;;;;;;;4.00;2.97;;;;;;;0.35;62.37;101783.38;4910878;29;20052;-85
2022/03/09 02:17:17;;;;;;;4.05;2.22;;;;;;;0.37;62.30;101775.75;4911492;29;20145;-84
2022/03/09 02:19:48;;;;;;;5.25;2.38;;;;;;;0.40;61.97;101778.47;4910375;29;20058;-84
2022/03/09 02:22:21;;;;;;;4.72;2.75;;;;;;;0.41;62.10;101778.53;4906755;29;20040;-84
2022/03/09 02:24:49;;;;;;;5.20;2.80;;;;;;;0.43;61.87;101782.09;4926166;29;20490;-84
2022/03/09 02:27:16;;;;;;;3.58;2.40;;;;;;;0.44;61.54;101780.38;4895309;29;20044;-85
2022/03/09 02:29:43;;;;;;;5.20;2.47;;;;;;;0.44;61.64;101780.38;4923834;29;20103;-85
2022/03/09 02:32:10;;;;;;;5.70;2.55;;;;;;;0.43;61.63;101782.09;4916615;29;20054;-85
2022/03/09 02:34:36;;;;;;;3.17;2.58;;;;;;;0.44;62.29;101772.66;4925018;29;20034;-85
2022/03/09 02:37:03;;;;;;;3.65;2.75;;;;;;;0.44;62.20;101777.81;4909942;29;20048;-85
2022/03/09 02:39:30;;;;;;;7.60;3.17;;;;;;;0.41;62.11;101777.66;4913976;29;20055;-84
2022/03/09 02:41:57;;;;;;;4.25;3.15;;;;;;;0.37;61.69;101789.50;4906910;29;20135;-84
2022/03/09 02:44:23;;;;;;;3.67;2.65;;;;;;;0.31;62.56;101781.44;4912385;29;20056;-84
2022/03/09 02:46:50;;;;;;;4.93;2.85;;;;;;;0.25;62.51;101794.00;4892405;29;20136;-85
2022/03/09 02:49:17;;;;;;;4.38;3.10;;;;;;;0.20;62.34;101788.63;4911202;29;20112;-85
2022/03/09 02:51:44;;;;;;;3.60;2.40;;;;;;;0.14;62.82;101791.78;4930169;29;20417;-84
2022/03/09 02:54:10;;;;;;;4.00;1.92;;;;;;;0.10;62.91;101791.53;4930329;29;20044;-85
2022/03/09 02:56:37;;;;;;;3.60;2.85;;;;;;;0.03;63.20;101790.34;4918401;29;20048;-84
2022/03/09 02:59:03;;;;;;;5.65;2.95;;;;;;;-0.03;63.17;101787.44;4920960;29;20043;-84
2022/03/09 03:01:30;;;;;;;3.42;2.60;;;;;;;-0.06;63.52;101789.84;4897014;29;20044;-84
2022/03/09 03:03:56;;;;;;;5.70;3.28;;;;;;;-0.10;63.65;101791.38;4904659;29;20051;-85
2022/03/09 03:06:23;;;;;;;4.47;3.28;;;;;;;-0.14;64.19;101783.41;4898707;29;20057;-85
2022/03/09 03:08:50;;;;;;;4.03;3.33;;;;;;;-0.17;63.91;101791.84;4933754;29;20052;-84
2022/03/09 03:11:17;;;;;;;3.05;2.83;;;;;;;-0.18;64.01;101792.66;4916204;29;20077;-84
2022/03/09 03:13:44;;;;;;;6.65;3.47;;;;;;;-0.22;63.87;101799.31;4912696;29;20071;-85
2022/03/09 03:16:12;;;;;;;4.90;3.55;;;;;;;-0.27;64.08;101787.03;4914573;29;20062;-84
2022/03/09 03:18:39;;;;;;;4.35;3.10;;;;;;;-0.30;64.96;101792.91;4910791;29;20056;-83
2022/03/09 03:21:06;;;;;;;4.43;2.97;;;;;;;-0.31;64.47;101792.78;4913283;29;20130;-84
2022/03/09 03:23:34;;;;;;;7.13;3.30;;;;;;;-0.32;65.14;101796.19;4896928;29;20705;-85
2022/03/09 03:26:02;;;;;;;3.85;2.28;;;;;;;-0.34;65.13;101799.56;4895273;29;20148;-85
2022/03/09 03:28:29;;;;;;;8.20;3.50;;;;;;;-0.37;65.43;101796.81;4931502;29;20065;-84
2022/03/09 03:30:55;;;;;;;4.65;2.85;;;;;;;-0.36;65.03;101793.44;4918665;29;20051;-84
2022/03/09 03:33:22;;;;;;;5.20;3.03;;;;;;;-0.37;65.53;101791.66;4897576;29;20058;-84
2022/03/09 03:35:50;;;;;;;5.72;3.35;;;;;;;-0.39;65.22;101798.41;4932825;29;20051;-84
2022/03/09 03:38:17;;;;;;;6.43;2.97;;;;;;;-0.42;65.40;101805.94;4898186;29;20078;-85
2022/03/09 03:40:44;;;;;;;5.90;3.30;;;;;;;-0.41;65.89;101812.00;4917189;29;20414;-85
2022/03/09 03:43:11;;;;;;;5.22;2.90;;;;;;;-0.42;65.92;101807.66;4917362;29;20075;-85
2022/03/09 03:45:38;;;;;;;4.97;3.63;;;;;;;-0.45;66.22;101798.09;4911314;29;20058;-85
2022/03/09 03:48:05;;;;;;;5.32;3.47;;;;;;;-0.47;66.25;101797.13;4917884;29;20066;-85
2022/03/09 03:50:31;;;;;;;4.05;3.42;;;;;;;-0.47;66.32;101798.81;4932265;29;20074;-85
2022/03/09 03:53:01;;;;;;;6.82;3.70;;;;;;;-0.48;65.96;101802.16;4919469;29;20055;-85
2022/03/09 03:55:28;;;;;;;3.97;3.05;;;;;;;-0.51;66.88;101797.75;4916514;29;20055;-85
2022/03/09 03:57:54;;;;;;;4.28;3.03;;;;;;;-0.52;66.72;101804.59;4928535;29;20055;-84
2022/03/09 04:00:23;;;;;;;6.10;3.65;;;;;;;-0.50;66.68;101802.09;4940022;29;20043;-84
2022/03/09 04:02:51;;;;;;;7.13;3.75;;;;;;;-0.51;66.58;101797.75;4913212;29;21237;-84
2022/03/09 04:05:17;;;;;;;3.60;3.00;;;;;;;-0.49;67.25;101797.84;4891883;29;20129;-85
2022/03/09 04:07:44;;;;;;;5.97;4.25;;;;;;;-0.53;67.50;101805.38;4912489;29;20054;-83
2022/03/09 04:10:10;;;;;;;4.45;2.40;;;;;;;-0.54;67.00;101813.00;4926022;29;20056;-84
2022/03/09 04:12:37;;;;;;;4.38;2.88;;;;;;;-0.55;67.18;101814.72;4898801;29;20043;-84
2022/03/09 04:15:04;;;;;;;6.30;2.90;;;;;;;-0.56;67.14;101814.59;4930609;29;20058;-85
2022/03/09 04:17:39;;;;;;;5.30;2.80;;;;;;;-0.59;67.67;101814.44;4894819;29;20132;-85
2022/03/09 04:20:07;;;;;;;5.80;3.17;;;;;;;-0.60;67.60;101812.66;4893400;29;20114;-85
2022/03/09 04:22:33;;;;;;;8.18;4.15;;;;;;;-0.61;67.86;101816.03;4903271;29;20056;-84
2022/03/09 04:25:00;;;;;;;4.32;3.42;;;;;;;-0.62;68.36;101815.16;4911136;29;20074;-85
2022/03/09 04:27:28;;;;;;;5.55;3.28;;;;;;;-0.64;68.59;101816.75;4898000;29;20056;-85
2022/03/09 04:29:54;;;;;;;4.25;3.78;;;;;;;-0.63;69.10;101813.38;4906594;29;20114;-85
2022/03/09 04:32:21;;;;;;;5.35;3.55;;;;;;;-0.68;68.53;101817.38;4914959;29;20130;-85
2022/03/09 04:34:48;;;;;;;7.55;4.05;;;;;;;-0.71;68.99;101817.22;4914259;29;20089;-84
2022/03/09 04:37:14;;;;;;;5.25;3.50;;;;;;;-0.75;69.69;101823.88;4914227;29;20044;-85
2022/03/09 04:39:41;;;;;;;6.28;3.45;;;;;;;-0.77;69.54;101816.88;4914622;29;20066;-85
2022/03/09 04:42:07;;;;;;;5.60;3.22;;;;;;;-0.77;70.26;101820.34;4910463;29;20036;-84
2022/03/09 04:44:34;;;;;;;5.65;3.40;;;;;;;-0.76;69.99;101822.09;4928653;29;20063;-83
2022/03/09 04:47:00;;;;;;;5.40;3.67;;;;;;;-0.78;70.43;101828.84;4931242;29;20065;-84
2022/03/09 04:49:27;;;;;;;5.82;3.53;;;;;;;-0.79;70.48;101823.63;4908141;29;20059;-84
2022/03/09 04:51:54;;;;;;;4.28;3.60;;;;;;;-0.81;70.82;101827.78;4914982;29;20142;-85
2022/03/09 04:54:20;;;;;;;7.05;3.53;;;;;;;-0.85;71.06;101826.72;4912460;29;20088;-84
2022/03/09 04:56:47;;;;;;;4.45;3.78;;;;;;;-0.89;71.14;101824.78;4911417;29;20143;-85
2022/03/09 04:59:14;;;;;;;6.57;3.17;;;;;;;-0.91;71.92;101828.94;4894486;29;20055;-85
2022/03/09 05:01:41;;;;;;;5.43;3.75;;;;;;;-0.92;71.45;101825.50;4895808;29;20106;-84
2022/03/09 05:04:07;;;;;;;9.98;3.55;;;;;;;-0.91;71.45;101832.41;4911403;29;20055;-84
2022/03/09 05:06:34;;;;;;;6.05;3.63;;;;;;;-0.91;71.94;101835.00;4913826;29;20059;-85
2022/03/09 05:09:00;;;;;;;7.20;4.53;;;;;;;-0.92;72.00;101835.78;4911691;29;20052;-85
2022/03/09 05:11:27;;;;;;;4.85;2.85;;;;;;;-0.96;71.92;101833.84;4930269;29;20130;-84
2022/03/09 05:13:53;;;;;;;5.07;3.53;;;;;;;-0.97;72.15;101836.34;4910384;29;20048;-84
2022/03/09 05:16:21;;;;;;;6.90;3.80;;;;;;;-1.03;72.03;101834.28;4912158;29;20150;-85
2022/03/09 05:18:48;;;;;;;7.50;3.17;;;;;;;-1.05;72.61;101835.88;4910691;29;20052;-85
2022/03/09 05:21:14;;;;;;;5.75;3.40;;;;;;;-1.08;72.41;101828.88;4891038;29;20115;-84
2022/03/09 05:23:41;;;;;;;7.68;4.38;;;;;;;-1.08;73.38;101828.88;4912970;29;20044;-84
2022/03/09 05:26:08;;;;;;;4.47;3.78;;;;;;;-1.06;73.69;101826.41;4902338;29;20058;-84
2022/03/09 05:28:37;;;;;;;7.85;3.90;;;;;;;-1.03;73.76;101824.91;4907307;29;20060;-84
2022/03/09 05:31:06;;;;;;;8.02;4.28;;;;;;;-0.98;73.35;101821.69;4893313;29;20245;-84
2022/03/09 05:33:32;;;;;;;11.10;4.07;;;;;;;-1.01;73.42;101823.28;4927031;29;20039;-85
2022/03/09 05:35:59;;;;;;;6.32;4.20;;;;;;;-1.04;73.29;101817.97;4907961;29;20056;-84
2022/03/09 05:38:25;;;;;;;5.13;3.50;;;;;;;-1.04;73.37;101825.69;4928982;28;20636;-84
2022/03/09 05:40:52;;;;;;;6.82;4.05;;;;;;;-1.03;73.61;101824.91;4926731;29;20514;-84
2022/03/09 05:43:18;;;;;;;6.43;5.25;;;;;;;-1.04;72.78;101823.13;4913692;29;20066;-85
2022/03/09 05:45:45;;;;;;;8.30;3.80;;;;;;;-1.02;73.32;101823.19;4914154;29;20070;-84
2022/03/09 05:48:12;;;;;;;12.25;5.00;;;;;;;-0.99;73.12;101825.97;4928541;29;20103;-85
2022/03/09 05:50:38;;;;;;;4.18;3.20;;;;;;;-0.96;72.97;101821.00;4898080;29;20059;-85
2022/03/09 05:53:05;;;;;;;5.38;3.90;;;;;;;-0.96;72.48;101820.13;4911525;29;20051;-84
2022/03/09 05:55:32;;;;;;;9.70;4.53;;;;;;;-0.96;72.32;101823.56;4893507;29;20422;-84
2022/03/09 05:57:58;;;;;;;7.25;4.40;;;;;;;-0.94;72.81;101826.22;4912062;29;20326;-84
2022/03/09 06:00:25;;;;;;;5.32;4.38;;;;;;;-0.94;72.52;101824.53;4909723;29;20047;-85
2022/03/09 06:02:51;;;;;;;4.50;3.63;;;;;;;-0.96;72.50;101822.69;4911679;29;20071;-84
2022/03/09 06:05:18;;;;;;;6.35;3.65;;;;;;;-1.00;72.94;101832.78;4927541;29;20050;-84
2022/03/09 06:07:44;;;;;;;8.68;3.38;;;;;;;-1.01;73.28;101827.56;4893884;29;20091;-84
2022/03/09 06:10:11;;;;;;;4.85;3.25;;;;;;;-1.00;72.83;101826.75;4909371;29;20138;-84
2022/03/09 06:12:41;;;;;;;4.55;3.95;;;;;;;-0.98;72.83;101825.16;4905137;29;20048;-85
2022/03/09 06:15:08;;;;;;;5.25;3.10;;;;;;;-0.95;73.19;101822.78;4932149;29;20040;-85
2022/03/09 06:17:56;;;;;;;5.63;4.50;;;;;;;-0.94;72.64;101823.63;4912879;29;20406;-84
2022/03/09 06:20:25;;;;;;;7.88;4.32;;;;;;;-0.94;73.28;101833.91;4912058;29;20047;-84
2022/03/09 06:22:53;;;;;;;7.03;4.82;;;;;;;-0.96;73.39;101827.81;4913286;29;20046;-84
2022/03/09 06:25:19;;;;;;;7.72;4.50;;;;;;;-0.93;73.33;101826.28;4918649;29;20285;-84
2022/03/09 06:27:51;;;;;;;5.82;5.00;;;;;;;-0.88;73.03;101824.00;4901328;29;20052;-85
2022/03/09 06:30:18;;;;;;;7.13;4.15;;;;;;;-0.83;73.45;101830.28;4936325;29;20071;-85
2022/03/09 06:32:46;;;;;;;7.55;3.58;;;;;;;-0.80;73.80;101838.16;4938085;29;20072;-84
2022/03/09 06:35:14;;;;;;;6.15;3.92;;;;;;;-0.77;73.75;101840.00;4922993;29;20110;-85
2022/03/09 06:37:41;;;;;;;6.25;3.92;;;;;;;-0.75;73.48;101830.72;4934704;29;20055;-84
2022/03/09 06:40:10;;;;;;;7.50;3.78;;;;;;;-0.74;73.48;101835.94;4902726;29;20064;-84
2022/03/09 06:42:38;;;;;;;7.85;4.57;;;;;;;-0.73;74.06;101831.66;4941529;29;20047;-84
2022/03/09 06:45:05;;;;;;;5.07;4.13;;;;;;;-0.69;73.75;101842.22;4934964;29;20063;-84
2022/03/09 06:47:35;;;;;;;9.43;3.80;;;;;;;-0.67;74.09;101839.75;4937528;29;20078;-85
2022/03/09 06:50:03;;;;;;;8.02;4.13;;;;;;;-0.62;73.47;101840.00;4916726;29;20045;-84
2022/03/09 06:52:30;;;;;;;6.82;3.72;;;;;;;-0.54;73.82;101849.03;4900526;29;20088;-84
2022/03/09 06:55:02;;;;;;;6.55;4.10;;;;;;;-0.48;73.46;101840.75;4934399;29;20058;-84
2022/03/09 06:57:34;;;;;;;8.80;4.20;;;;;;;-0.37;73.30;101845.69;4916904;29;20175;-84
2022/03/09 07:00:02;;;;;;;6.82;3.55;;;;;;;-0.12;72.11;101848.72;4904427;29;20064;-85
2022/03/09 07:02:31;;;;;;;7.32;4.05;;;;;;;0.37;70.50;101843.59;4892732;29;20099;-84
2022/03/09 07:04:57;;;;;;;7.03;4.63;;;;;;;0.96;68.76;101855.16;4916217;29;20048;-86
2022/03/09 07:07:24;;;;;;;6.60;3.92;;;;;;;1.54;66.92;101850.16;4923652;29;20745;-85
2022/03/09 07:09:50;;;;;;;5.10;4.10;;;;;;;2.10;65.07;101848.41;4926122;29;20401;-85
2022/03/09 07:12:17;;;;;;;8.10;4.63;;;;;;;2.64;63.88;101854.25;4916603;29;20142;-86
2022/03/09 07:14:44;;;;;;;5.60;4.32;;;;;;;3.14;62.51;101846.84;4920795;29;20123;-85
2022/03/09 07:17:10;;;;;;;6.45;4.50;;;;;;;3.54;59.89;101847.53;4933079;29;20139;-85
2022/03/09 07:19:37;;;;;;;6.35;3.97;;;;;;;3.80;59.19;101845.97;4915744;29;20048;-86
2022/03/09 07:22:04;;;;;;;4.53;3.72;;;;;;;4.13;57.49;101842.88;4919542;29;20063;-85
2022/03/09 07:24:30;;;;;;;6.72;4.35;;;;;;;4.37;57.09;101854.97;4918902;29;20142;-86
2022/03/09 07:26:57;;;;;;;4.25;3.60;;;;;;;4.63;55.19;101855.88;4917188;29;20067;-86
2022/03/09 07:29:24;;;;;;;8.80;4.93;;;;;;;4.89;54.32;101855.88;4914807;29;20052;-85
